Time;durP1;ratioP1;P1;durP2;ratioP2;P2;SDS_P1;SDS_P2;PMS_P1;PMS_P2;Temp;Humidity;BMP_temperature;BMP_pressure;BME280_temperature;BME280_humidity;BME280_pressure;Samples;Min_cycle;Max_cycle;Signal;HPM_P1;HPM_P2
2021/12/12 00:01:01;;;;;;;;;;;14.30;66.80;;;;;;5100000;28;20246;-71
2021/12/12 00:03:35;;;;;;;;;;;14.30;66.80;;;;;;5100236;28;19930;-72
2021/12/12 00:06:03;;;;;;;;;;;14.30;66.70;;;;;;5100192;28;19915;-71
2021/12/12 00:08:29;;;;;;;;;;;14.20;67.00;;;;;;5100122;28;20192;-71
2021/12/12 00:10:57;;;;;;;;;;;14.30;66.80;;;;;;5100091;28;19900;-71
2021/12/12 00:13:25;;;;;;;;;;;14.20;66.80;;;;;;5100089;28;19908;-71
2021/12/12 00:15:50;;;;;;;;;;;14.30;66.80;;;;;;5099948;28;19908;-70
2021/12/12 00:18:16;;;;;;;;;;;14.30;66.90;;;;;;5099550;28;20103;-71
2021/12/12 00:20:43;;;;;;;;;;;14.20;66.90;;;;;;5100054;28;19932;-70
2021/12/12 00:23:09;;;;;;;;;;;14.30;66.80;;;;;;5100030;28;19971;-71
2021/12/12 00:25:47;;;;;;;;;;;14.20;67.00;;;;;;5099943;28;19907;-71
2021/12/12 00:28:15;;;;;;;;;;;14.30;67.00;;;;;;5099891;28;20219;-70
2021/12/12 00:30:42;;;;;;;;;;;14.30;66.90;;;;;;5099770;28;19900;-70
2021/12/12 00:33:08;;;;;;;;;;;14.30;67.10;;;;;;5099851;28;19908;-72
2021/12/12 00:35:33;;;;;;;;;;;14.20;66.80;;;;;;5099783;28;19941;-71
2021/12/12 00:38:03;;;;;;;;;;;14.30;66.70;;;;;;5099814;28;20188;-71
2021/12/12 00:40:31;;;;;;;;;;;14.30;66.90;;;;;;5099833;28;19900;-71
2021/12/12 00:42:58;;;;;;;;;;;14.30;66.80;;;;;;5099727;28;20158;-70
2021/12/12 00:45:24;;;;;;;;;;;14.30;66.90;;;;;;5099792;28;20188;-70
2021/12/12 00:47:50;;;;;;;;;;;14.30;66.80;;;;;;5099756;28;19900;-70
2021/12/12 00:50:24;;;;;;;;;;;14.30;66.80;;;;;;5099599;28;19908;-71
2021/12/12 00:52:51;;;;;;;;;;;14.30;66.90;;;;;;5099716;28;19908;-71
2021/12/12 00:55:16;;;;;;;;;;;14.20;66.90;;;;;;5099472;28;20119;-71
2021/12/12 00:57:42;;;;;;;;;;;14.30;66.70;;;;;;5081501;28;19933;-71
2021/12/12 01:00:10;;;;;;;;;;;14.20;66.70;;;;;;5099666;28;19979;-71
2021/12/12 01:02:36;;;;;;;;;;;14.30;66.70;;;;;;5099486;28;19907;-71
2021/12/12 01:05:03;;;;;;;;;;;14.30;66.70;;;;;;5081559;28;19947;-71
2021/12/12 01:07:31;;;;;;;;;;;14.30;67.60;;;;;;5081502;28;20091;-71
2021/12/12 01:09:59;;;;;;;;;;;14.20;66.70;;;;;;5099743;28;19938;-71
2021/12/12 01:12:30;;;;;;;;;;;14.20;66.60;;;;;;5103361;28;19907;-70
2021/12/12 01:14:59;;;;;;;;;;;14.30;66.70;;;;;;5103269;28;19962;-71
2021/12/12 01:17:27;;;;;;;;;;;14.20;66.80;;;;;;5084990;28;19961;-72
2021/12/12 01:20:09;;;;;;;;;;;14.30;67.00;;;;;;5085303;28;20569;-71
2021/12/12 01:22:37;;;;;;;;;;;14.30;66.80;;;;;;5103058;28;19914;-71
2021/12/12 01:25:35;;;;;;;;;;;14.30;66.80;;;;;;5103116;28;19908;-71
2021/12/12 01:28:01;;;;;;;;;;;14.30;66.80;;;;;;5040981;28;19908;-70
2021/12/12 01:30:27;;;;;;;;;;;14.30;66.70;;;;;;5102814;28;19900;-71
2021/12/12 01:32:54;;;;;;;;;;;14.30;66.70;;;;;;5102908;28;19907;-70
2021/12/12 01:35:20;;;;;;;;;;;14.20;66.60;;;;;;5102900;28;19908;-72
2021/12/12 01:40:40;;;;;;;;;;;14.20;66.70;;;;;;5055274;28;19912;-70
2021/12/12 01:43:26;;;;;;;;;;;14.30;66.80;;;;;;5102733;28;19908;-71
2021/12/12 01:46:13;;;;;;;;;;;14.30;66.80;;;;;;5102535;28;19907;-71
2021/12/12 01:48:47;;;;;;;;;;;14.30;66.80;;;;;;5102664;28;20160;-71
2021/12/12 01:51:13;;;;;;;;;;;14.30;66.80;;;;;;5102619;28;19923;-72
2021/12/12 01:53:40;;;;;;;;;;;14.30;66.60;;;;;;5102501;28;19900;-71
2021/12/12 01:56:10;;;;;;;;;;;14.30;66.60;;;;;;5102228;28;19975;-71
2021/12/12 01:58:38;;;;;;;;;;;14.30;66.60;;;;;;5102452;28;19900;-71
2021/12/12 02:01:05;;;;;;;;;;;14.30;66.60;;;;;;5084317;28;19908;-71
2021/12/12 02:03:34;;;;;;;;;;;14.30;66.70;;;;;;5102321;28;20212;-71
2021/12/12 02:06:00;;;;;;;;;;;14.30;66.70;;;;;;5102229;28;19943;-71
2021/12/12 02:08:27;;;;;;;;;;;14.30;66.70;;;;;;5102219;28;19913;-71
2021/12/12 02:10:55;;;;;;;;;;;14.30;66.60;;;;;;5102147;28;19908;-71
2021/12/12 02:13:22;;;;;;;;;;;14.30;66.50;;;;;;5102088;28;19908;-71
2021/12/12 02:15:50;;;;;;;;;;;14.20;66.60;;;;;;5101878;28;19912;-70
2021/12/12 02:18:17;;;;;;;;;;;14.20;66.50;;;;;;5083841;28;20297;-71
2021/12/12 02:21:04;;;;;;;;;;;14.20;66.50;;;;;;5102011;28;19908;-71
2021/12/12 02:37:19;;;;;;;;;;;14.30;66.60;;;;;;5101650;28;19993;-70
2021/12/12 02:39:44;;;;;;;;;;;14.30;66.60;;;;;;5083547;28;19908;-71
2021/12/12 02:42:12;;;;;;;;;;;14.30;66.70;;;;;;5101598;28;19915;-70
2021/12/12 02:44:41;;;;;;;;;;;14.30;66.70;;;;;;5101568;28;19915;-71
2021/12/12 02:47:13;;;;;;;;;;;14.20;66.60;;;;;;5083323;28;19907;-70
2021/12/12 02:50:09;;;;;;;;;;;14.30;66.50;;;;;;5101468;28;19900;-71
2021/12/12 02:52:30;;;;;;;;;;;14.30;66.70;;;;;;5100355;28;19931;-70
2021/12/12 02:54:56;;;;;;;;;;;14.20;66.50;;;;;;5101146;28;19955;-71
2021/12/12 02:57:22;;;;;;;;;;;14.20;66.60;;;;;;5082973;28;19911;-71
2021/12/12 02:59:50;;;;;;;;;;;14.20;66.50;;;;;;5083075;28;20107;-71
2021/12/12 03:02:22;;;;;;;;;;;14.30;66.50;;;;;;5101174;28;19978;-70
2021/12/12 03:04:48;;;;;;;;;;;14.20;66.60;;;;;;5101115;28;19975;-71
2021/12/12 03:07:14;;;;;;;;;;;14.20;66.50;;;;;;5101062;28;19900;-70
2021/12/12 03:09:42;;;;;;;;;;;14.30;66.40;;;;;;5101086;28;19967;-71
2021/12/12 03:12:12;;;;;;;;;;;14.20;66.30;;;;;;5100986;28;19908;-71
2021/12/12 03:14:38;;;;;;;;;;;14.30;66.40;;;;;;5100951;28;19908;-70
2021/12/12 03:17:10;;;;;;;;;;;14.30;66.50;;;;;;5100804;28;20021;-71
2021/12/12 03:19:36;;;;;;;;;;;14.30;66.70;;;;;;5100870;28;19908;-71
2021/12/12 03:22:03;;;;;;;;;;;14.20;66.60;;;;;;5100877;28;19907;-70
2021/12/12 03:24:28;;;;;;;;;;;14.30;66.50;;;;;;5100793;28;19912;-70
2021/12/12 03:26:56;;;;;;;;;;;14.20;66.50;;;;;;5100606;28;19911;-70
2021/12/12 03:29:22;;;;;;;;;;;14.20;66.60;;;;;;5100728;28;19904;-70
2021/12/12 03:31:50;;;;;;;;;;;14.20;66.50;;;;;;5100622;28;19930;-71
2021/12/12 03:34:18;;;;;;;;;;;14.20;66.30;;;;;;5099723;28;19923;-71
2021/12/12 03:36:45;;;;;;;;;;;14.30;66.40;;;;;;5100429;28;20002;-72
2021/12/12 03:39:14;;;;;;;;;;;14.20;66.40;;;;;;5100501;28;19914;-72
2021/12/12 03:41:43;;;;;;;;;;;14.20;66.50;;;;;;5100431;28;19900;-71
2021/12/12 03:44:11;;;;;;;;;;;14.30;66.40;;;;;;5100424;28;19922;-71
2021/12/12 03:46:37;;;;;;;;;;;14.30;66.50;;;;;;5100350;28;19967;-70
2021/12/12 03:49:04;;;;;;;;;;;14.30;66.50;;;;;;5100424;28;20495;-71
2021/12/12 03:51:30;;;;;;;;;;;14.20;66.50;;;;;;5100269;28;19945;-70
2021/12/12 03:53:56;;;;;;;;;;;14.20;66.50;;;;;;5100162;28;19975;-71
2021/12/12 03:56:22;;;;;;;;;;;14.20;66.30;;;;;;5100034;28;19923;-70
2021/12/12 03:58:48;;;;;;;;;;;14.20;66.30;;;;;;5100162;28;19942;-70
2021/12/12 04:01:27;;;;;;;;;;;14.30;66.40;;;;;;5100092;28;19900;-72
2021/12/12 04:03:55;;;;;;;;;;;14.30;66.50;;;;;;5100345;28;20107;-71
2021/12/12 04:06:22;;;;;;;;;;;14.30;66.40;;;;;;5100155;28;19979;-72
2021/12/12 04:08:50;;;;;;;;;;;14.20;66.30;;;;;;5100033;28;19915;-72
2021/12/12 04:11:17;;;;;;;;;;;14.20;66.30;;;;;;5100047;28;19916;-71
2021/12/12 04:13:45;;;;;;;;;;;14.20;66.20;;;;;;5099978;28;20200;-72
2021/12/12 04:16:11;;;;;;;;;;;14.20;66.40;;;;;;5099857;28;19918;-72
2021/12/12 04:18:37;;;;;;;;;;;14.20;66.40;;;;;;5099957;28;19927;-72
2021/12/12 04:21:03;;;;;;;;;;;14.30;66.60;;;;;;5099967;28;20314;-72
2021/12/12 04:23:29;;;;;;;;;;;14.20;66.40;;;;;;5099923;28;19900;-71
2021/12/12 04:26:07;;;;;;;;;;;14.30;66.40;;;;;;5099873;28;19975;-72
2021/12/12 04:28:33;;;;;;;;;;;14.20;66.40;;;;;;5099883;28;19938;-70
2021/12/12 04:30:58;;;;;;;;;;;14.20;66.50;;;;;;5099879;28;19912;-71
2021/12/12 04:33:25;;;;;;;;;;;14.20;66.40;;;;;;5099773;28;19904;-71
2021/12/12 04:35:50;;;;;;;;;;;14.20;66.50;;;;;;5099663;28;19970;-72
2021/12/12 04:38:16;;;;;;;;;;;14.30;66.50;;;;;;5099757;28;20130;-70
2021/12/12 04:40:41;;;;;;;;;;;14.20;66.30;;;;;;5099874;28;19968;-71
2021/12/12 04:43:07;;;;;;;;;;;14.20;66.30;;;;;;5099697;28;19915;-71
2021/12/12 04:45:49;;;;;;;;;;;14.20;66.50;;;;;;5100884;28;19971;-71
2021/12/12 04:51:03;;;;;;;;;;;14.20;66.40;;;;;;5103689;28;19907;-70
2021/12/12 04:53:54;;;;;;;;;;;14.20;66.20;;;;;;5103716;28;19944;-70
2021/12/12 04:56:20;;;;;;;;;;;14.20;66.50;;;;;;5054470;28;19967;-72
2021/12/12 04:58:53;;;;;;;;;;;14.20;66.40;;;;;;5103565;28;19935;-71
2021/12/12 05:01:22;;;;;;;;;;;14.20;66.30;;;;;;5085381;28;19908;-71
2021/12/12 05:03:58;;;;;;;;;;;14.20;66.30;;;;;;5103392;28;19950;-71
2021/12/12 05:06:28;;;;;;;;;;;14.20;66.30;;;;;;5103375;28;19915;-72
2021/12/12 05:09:04;;;;;;;;;;;14.20;66.30;;;;;;5103344;28;19900;-71
2021/12/12 05:11:50;;;;;;;;;;;14.20;66.50;;;;;;5103363;28;19906;-71
2021/12/12 05:14:22;;;;;;;;;;;14.20;66.30;;;;;;5103233;28;19961;-71
2021/12/12 05:16:51;;;;;;;;;;;14.20;66.40;;;;;;5085038;28;19912;-71
2021/12/12 05:19:21;;;;;;;;;;;14.20;66.40;;;;;;5103206;28;19907;-72
2021/12/12 05:21:48;;;;;;;;;;;14.20;66.30;;;;;;5103043;28;20222;-71
2021/12/12 05:24:14;;;;;;;;;;;14.20;66.30;;;;;;5103068;28;19939;-72
2021/12/12 05:26:44;;;;;;;;;;;14.20;66.20;;;;;;5103059;28;19900;-71
2021/12/12 05:29:13;;;;;;;;;;;14.20;66.30;;;;;;5103053;28;20096;-70
2021/12/12 05:31:39;;;;;;;;;;;14.20;66.10;;;;;;5102947;28;19907;-70
2021/12/12 05:34:05;;;;;;;;;;;14.20;66.30;;;;;;5102828;28;19904;-72
2021/12/12 05:36:33;;;;;;;;;;;14.20;66.20;;;;;;5102805;28;19911;-72
2021/12/12 05:39:00;;;;;;;;;;;14.20;66.30;;;;;;5102771;28;19919;-71
2021/12/12 05:41:26;;;;;;;;;;;14.20;66.20;;;;;;5084496;28;20319;-70
2021/12/12 05:43:55;;;;;;;;;;;14.30;66.30;;;;;;5102754;28;19906;-71
2021/12/12 05:46:22;;;;;;;;;;;14.20;66.50;;;;;;5102667;28;19908;-70
2021/12/12 05:48:49;;;;;;;;;;;14.20;66.30;;;;;;5102627;28;19981;-70
2021/12/12 05:51:15;;;;;;;;;;;14.20;66.20;;;;;;5084342;28;19907;-71
2021/12/12 05:53:41;;;;;;;;;;;14.20;66.30;;;;;;5102537;28;19946;-70
2021/12/12 05:56:07;;;;;;;;;;;14.20;66.10;;;;;;5102231;28;19927;-71
2021/12/12 05:58:33;;;;;;;;;;;14.20;66.30;;;;;;5101424;28;20104;-71
2021/12/12 06:01:08;;;;;;;;;;;14.20;66.10;;;;;;5102331;28;19907;-71
2021/12/12 06:03:37;;;;;;;;;;;14.20;66.10;;;;;;5102260;28;20216;-71
2021/12/12 06:06:07;;;;;;;;;;;14.20;66.20;;;;;;5102297;28;19907;-72
2021/12/12 06:08:33;;;;;;;;;;;14.20;66.10;;;;;;5102274;28;19931;-71
2021/12/12 06:10:59;;;;;;;;;;;14.20;66.20;;;;;;5084234;28;19971;-71
2021/12/12 06:13:25;;;;;;;;;;;14.20;66.20;;;;;;5083985;28;20100;-71
2021/12/12 06:15:53;;;;;;;;;;;14.20;66.30;;;;;;5101960;28;19943;-71
2021/12/12 06:18:23;;;;;;;;;;;14.20;66.10;;;;;;5102120;28;19904;-71
2021/12/12 06:20:49;;;;;;;;;;;14.20;66.30;;;;;;5102088;28;19939;-71
2021/12/12 06:23:15;;;;;;;;;;;14.20;66.10;;;;;;5101978;28;20259;-71
2021/12/12 06:25:42;;;;;;;;;;;14.20;66.10;;;;;;5101980;28;19907;-71
2021/12/12 06:28:20;;;;;;;;;;;14.20;66.20;;;;;;5101912;28;19908;-71
2021/12/12 06:30:45;;;;;;;;;;;14.20;66.10;;;;;;5101800;28;19907;-70
2021/12/12 06:33:11;;;;;;;;;;;14.20;66.20;;;;;;5101724;28;19911;-70
2021/12/12 06:35:37;;;;;;;;;;;14.20;66.20;;;;;;5101707;28;19914;-71
2021/12/12 06:38:04;;;;;;;;;;;14.20;66.20;;;;;;5101558;28;19919;-73
2021/12/12 06:40:30;;;;;;;;;;;14.20;66.10;;;;;;5101581;28;19938;-70
2021/12/12 06:42:58;;;;;;;;;;;14.20;66.00;;;;;;5101553;28;19911;-71
2021/12/12 06:45:24;;;;;;;;;;;14.20;65.90;;;;;;5101474;28;19986;-71
2021/12/12 06:47:50;;;;;;;;;;;14.20;66.10;;;;;;5101539;28;20108;-72
2021/12/12 06:50:16;;;;;;;;;;;14.20;66.20;;;;;;5083153;28;19915;-70
2021/12/12 06:52:42;;;;;;;;;;;14.20;66.20;;;;;;5101385;28;19915;-72
2021/12/12 06:55:10;;;;;;;;;;;14.20;66.30;;;;;;5082999;28;19919;-71
2021/12/12 06:57:37;;;;;;;;;;;14.20;66.10;;;;;;5101204;28;19912;-72
2021/12/12 07:00:05;;;;;;;;;;;14.20;66.10;;;;;;5101329;28;19915;-71
2021/12/12 07:02:30;;;;;;;;;;;14.20;66.20;;;;;;5101207;28;20105;-71
2021/12/12 07:04:56;;;;;;;;;;;14.20;65.90;;;;;;5082913;28;19915;-71
2021/12/12 07:07:24;;;;;;;;;;;14.20;66.00;;;;;;5101103;28;19915;-71
2021/12/12 07:09:51;;;;;;;;;;;14.20;66.10;;;;;;5100928;28;19943;-70
2021/12/12 07:12:22;;;;;;;;;;;14.20;66.10;;;;;;5101054;28;19907;-71
2021/12/12 07:14:48;;;;;;;;;;;14.20;66.10;;;;;;5101105;28;19987;-71
2021/12/12 07:17:14;;;;;;;;;;;14.20;66.20;;;;;;5100791;28;19911;-72
2021/12/12 07:19:40;;;;;;;;;;;14.20;66.10;;;;;;5100896;28;19979;-71
2021/12/12 07:22:06;;;;;;;;;;;14.20;66.10;;;;;;5100811;28;19947;-71
2021/12/12 07:24:32;;;;;;;;;;;14.20;66.00;;;;;;5082665;28;20111;-71
2021/12/12 07:26:58;;;;;;;;;;;14.20;66.10;;;;;;5101052;28;19989;-71
2021/12/12 07:29:25;;;;;;;;;;;14.30;66.10;;;;;;5100656;28;19927;-71
2021/12/12 07:31:51;;;;;;;;;;;14.20;65.90;;;;;;5100698;28;19908;-71
2021/12/12 07:34:16;;;;;;;;;;;14.20;66.10;;;;;;5100561;28;20078;-71
2021/12/12 07:36:49;;;;;;;;;;;14.20;66.10;;;;;;5100558;28;19912;-71
2021/12/12 07:39:16;;;;;;;;;;;14.20;65.90;;;;;;5100542;28;19975;-72
2021/12/12 07:41:43;;;;;;;;;;;14.30;66.10;;;;;;5100442;28;19973;-72
2021/12/12 07:44:10;;;;;;;;;;;14.20;66.00;;;;;;5100544;28;19908;-71
2021/12/12 07:46:36;;;;;;;;;;;14.20;66.00;;;;;;5100307;28;19981;-71
2021/12/12 07:49:03;;;;;;;;;;;14.20;66.00;;;;;;5100411;28;19915;-72
2021/12/12 07:51:29;;;;;;;;;;;14.20;66.10;;;;;;5100326;28;19908;-71
2021/12/12 07:53:58;;;;;;;;;;;14.30;66.00;;;;;;5082129;28;19900;-71
2021/12/12 07:56:26;;;;;;;;;;;14.30;65.90;;;;;;5099827;28;19920;-72
2021/12/12 07:58:52;;;;;;;;;;;14.20;65.90;;;;;;5100278;28;19942;-71
2021/12/12 08:01:18;;;;;;;;;;;14.30;65.90;;;;;;5100182;28;19912;-72
2021/12/12 08:03:44;;;;;;;;;;;14.30;65.90;;;;;;5100126;28;19908;-72
2021/12/12 08:06:11;;;;;;;;;;;14.30;65.70;;;;;;5100165;28;19900;-72
2021/12/12 08:08:37;;;;;;;;;;;14.30;65.90;;;;;;5100062;28;19964;-71
2021/12/12 08:11:05;;;;;;;;;;;14.30;65.70;;;;;;5100087;28;19908;-71
2021/12/12 08:13:31;;;;;;;;;;;14.30;65.80;;;;;;5100061;28;19949;-71
2021/12/12 08:15:57;;;;;;;;;;;14.30;65.70;;;;;;5099930;28;19900;-72
2021/12/12 08:18:22;;;;;;;;;;;14.40;65.70;;;;;;5099992;28;19907;-71
2021/12/12 08:20:49;;;;;;;;;;;14.40;65.60;;;;;;5099435;28;19908;-71
2021/12/12 08:23:16;;;;;;;;;;;14.40;66.00;;;;;;5099920;28;19911;-72
2021/12/12 08:25:42;;;;;;;;;;;14.40;65.30;;;;;;5099977;28;20013;-71
2021/12/12 08:28:09;;;;;;;;;;;14.40;65.30;;;;;;5099894;28;19915;-71
2021/12/12 08:30:35;;;;;;;;;;;14.40;65.20;;;;;;5100096;28;19908;-71
2021/12/12 08:33:01;;;;;;;;;;;14.50;65.00;;;;;;5099948;28;19965;-72
2021/12/12 08:35:27;;;;;;;;;;;14.50;64.90;;;;;;5099821;28;19907;-71
2021/12/12 08:37:53;;;;;;;;;;;14.50;64.80;;;;;;5099825;28;19923;-71
2021/12/12 08:40:24;;;;;;;;;;;14.50;64.60;;;;;;5099811;28;20234;-71
2021/12/12 08:42:51;;;;;;;;;;;14.50;64.50;;;;;;5081686;28;20020;-72
2021/12/12 08:45:18;;;;;;;;;;;14.50;64.60;;;;;;5099852;28;19945;-72
2021/12/12 08:47:46;;;;;;;;;;;14.50;64.70;;;;;;5099774;28;19986;-71
2021/12/12 08:50:12;;;;;;;;;;;14.60;64.50;;;;;;5099750;28;19954;-71
2021/12/12 08:52:41;;;;;;;;;;;14.60;64.50;;;;;;5081720;28;20148;-70
2021/12/12 08:55:14;;;;;;;;;;;14.60;64.40;;;;;;5081414;28;19906;-71
2021/12/12 08:57:49;;;;;;;;;;;14.60;64.00;;;;;;5099599;28;19900;-71
2021/12/12 09:00:18;;;;;;;;;;;14.70;64.20;;;;;;5099610;28;20248;-71
2021/12/12 09:02:45;;;;;;;;;;;14.60;64.10;;;;;;5099546;28;20179;-71
2021/12/12 09:05:13;;;;;;;;;;;14.60;64.10;;;;;;5099603;28;19985;-71
2021/12/12 09:07:42;;;;;;;;;;;14.60;64.10;;;;;;5099500;28;19907;-72
2021/12/12 09:10:15;;;;;;;;;;;14.70;63.50;;;;;;5099816;28;19942;-72
2021/12/12 09:12:44;;;;;;;;;;;14.70;64.20;;;;;;5099490;28;19914;-71
2021/12/12 09:15:15;;;;;;;;;;;14.70;64.00;;;;;;5099532;28;19906;-71
2021/12/12 09:18:13;;;;;;;;;;;14.70;62.90;;;;;;5099412;28;20134;-71
2021/12/12 09:20:49;;;;;;;;;;;14.80;64.00;;;;;;5037286;28;19912;-71
2021/12/12 09:23:20;;;;;;;;;;;14.80;62.90;;;;;;5099441;28;20073;-71
2021/12/12 09:25:51;;;;;;;;;;;14.80;63.30;;;;;;5099424;28;19915;-71
2021/12/12 09:28:24;;;;;;;;;;;14.80;63.00;;;;;;5099356;28;19915;-71
2021/12/12 09:30:50;;;;;;;;;;;14.80;63.40;;;;;;5099444;28;19900;-71
2021/12/12 09:33:20;;;;;;;;;;;14.90;63.50;;;;;;5101382;28;19915;-71
2021/12/12 09:35:49;;;;;;;;;;;14.90;63.40;;;;;;5102876;28;19915;-71
2021/12/12 09:38:19;;;;;;;;;;;14.90;63.00;;;;;;5102833;28;19903;-70
2021/12/12 09:41:03;;;;;;;;;;;14.90;63.20;;;;;;5102765;28;20247;-71
2021/12/12 09:43:47;;;;;;;;;;;14.90;63.60;;;;;;5102819;28;19914;-72
2021/12/12 09:46:30;;;;;;;;;;;14.90;63.50;;;;;;5102769;28;19908;-69
2021/12/12 09:52:05;;;;;;;;;;;15.00;63.00;;;;;;5070703;28;19907;-71
2021/12/12 09:54:31;;;;;;;;;;;15.00;63.70;;;;;;5102529;28;19907;-72
2021/12/12 09:56:59;;;;;;;;;;;15.00;63.80;;;;;;5102180;28;19927;-72
2021/12/12 09:59:31;;;;;;;;;;;15.00;63.80;;;;;;5102400;28;19911;-71
2021/12/12 10:01:57;;;;;;;;;;;15.10;63.80;;;;;;5102341;28;19919;-72
2021/12/12 10:04:23;;;;;;;;;;;15.00;63.80;;;;;;5102419;28;19908;-71
2021/12/12 10:07:03;;;;;;;;;;;15.10;63.80;;;;;;5102399;28;19915;-71
2021/12/12 10:09:34;;;;;;;;;;;15.10;63.80;;;;;;5084036;28;20144;-71
2021/12/12 10:12:03;;;;;;;;;;;15.10;63.80;;;;;;5102286;28;19911;-70
2021/12/12 10:14:45;;;;;;;;;;;15.10;63.80;;;;;;5102165;28;19900;-73
2021/12/12 10:17:10;;;;;;;;;;;15.10;63.90;;;;;;5083937;28;19912;-72
2021/12/12 10:19:36;;;;;;;;;;;15.10;63.90;;;;;;5102039;28;19922;-72
2021/12/12 10:22:01;;;;;;;;;;;15.20;63.90;;;;;;5102001;28;19900;-72
2021/12/12 10:24:32;;;;;;;;;;;15.20;63.90;;;;;;5101952;28;19908;-72
2021/12/12 10:27:12;;;;;;;;;;;15.20;64.60;;;;;;5101865;28;20124;-71
2021/12/12 10:30:04;;;;;;;;;;;15.20;64.00;;;;;;5101854;28;19908;-70
2021/12/12 10:32:32;;;;;;;;;;;15.20;64.00;;;;;;5096722;28;20245;-71
2021/12/12 10:35:07;;;;;;;;;;;15.20;64.00;;;;;;5083675;28;19908;-71
2021/12/12 10:37:35;;;;;;;;;;;15.20;64.00;;;;;;5101728;28;20166;-71
2021/12/12 10:40:14;;;;;;;;;;;15.20;63.90;;;;;;5101672;28;19904;-72
2021/12/12 10:42:45;;;;;;;;;;;15.20;64.00;;;;;;5101396;28;20383;-70
2021/12/12 10:45:15;;;;;;;;;;;15.20;64.00;;;;;;5083302;28;19915;-71
2021/12/12 10:47:53;;;;;;;;;;;15.20;64.00;;;;;;5101526;28;20383;-72
2021/12/12 10:50:23;;;;;;;;;;;15.20;64.00;;;;;;5101507;28;19915;-72
2021/12/12 10:52:56;;;;;;;;;;;15.30;64.10;;;;;;5101390;28;19908;-71
2021/12/12 10:55:34;;;;;;;;;;;15.30;64.20;;;;;;5101274;28;19969;-71
2021/12/12 10:58:14;;;;;;;;;;;15.30;64.10;;;;;;5101332;28;20180;-71
2021/12/12 11:00:51;;;;;;;;;;;15.30;64.10;;;;;;5101331;28;19931;-70
2021/12/12 11:03:30;;;;;;;;;;;15.30;63.80;;;;;;5101230;28;19908;-71
2021/12/12 11:06:16;;;;;;;;;;;15.30;64.00;;;;;;5101063;28;19915;-71
2021/12/12 11:08:52;;;;;;;;;;;15.30;64.10;;;;;;5101146;28;19904;-71
2021/12/12 11:11:20;;;;;;;;;;;15.30;64.10;;;;;;5101093;28;19915;-71
2021/12/12 11:13:50;;;;;;;;;;;15.30;64.00;;;;;;5100886;28;19908;-71
2021/12/12 11:16:27;;;;;;;;;;;15.40;64.10;;;;;;5100828;28;19912;-71
2021/12/12 11:18:56;;;;;;;;;;;15.40;64.10;;;;;;5082808;28;20231;-71
2021/12/12 11:21:22;;;;;;;;;;;15.30;64.00;;;;;;5100886;28;19900;-71
2021/12/12 11:23:50;;;;;;;;;;;15.40;64.10;;;;;;5100801;28;19908;-71
2021/12/12 11:26:22;;;;;;;;;;;15.40;64.00;;;;;;5100746;28;19921;-70
2021/12/12 11:29:11;;;;;;;;;;;15.40;64.10;;;;;;5082508;28;19927;-72
2021/12/12 11:32:06;;;;;;;;;;;15.40;64.20;;;;;;5087080;28;19907;-71
2021/12/12 11:34:32;;;;;;;;;;;15.40;64.20;;;;;;5079036;28;19978;-71
2021/12/12 11:37:07;;;;;;;;;;;15.40;64.10;;;;;;5100538;28;19931;-71
2021/12/12 11:39:53;;;;;;;;;;;15.40;64.20;;;;;;5100510;28;19946;-71
2021/12/12 11:42:41;;;;;;;;;;;15.40;64.30;;;;;;5099928;28;19908;-71
2021/12/12 11:45:25;;;;;;;;;;;15.40;64.20;;;;;;5100404;28;20223;-72
2021/12/12 11:48:08;;;;;;;;;;;15.40;64.20;;;;;;5100371;28;20193;-72
2021/12/12 11:50:43;;;;;;;;;;;15.40;64.30;;;;;;5100329;28;19950;-72
2021/12/12 11:53:35;;;;;;;;;;;15.40;64.40;;;;;;5100365;28;20235;-71
2021/12/12 11:56:04;;;;;;;;;;;15.30;64.30;;;;;;5094412;28;20229;-71
2021/12/12 11:58:36;;;;;;;;;;;15.30;64.30;;;;;;5100315;28;20199;-71
2021/12/12 12:01:22;;;;;;;;;;;15.30;64.30;;;;;;5100189;28;19915;-73
2021/12/12 12:03:57;;;;;;;;;;;15.40;64.30;;;;;;5081365;28;19931;-71
2021/12/12 12:06:27;;;;;;;;;;;15.40;64.30;;;;;;5100174;28;19979;-71
2021/12/12 12:09:12;;;;;;;;;;;15.40;64.30;;;;;;5100057;28;20223;-72
2021/12/12 12:11:55;;;;;;;;;;;15.40;64.00;;;;;;5099998;28;19908;-71
2021/12/12 12:14:45;;;;;;;;;;;15.40;64.00;;;;;;5100003;28;19947;-71
2021/12/12 12:17:20;;;;;;;;;;;15.40;63.90;;;;;;5098844;28;19912;-71
2021/12/12 12:20:02;;;;;;;;;;;15.40;63.90;;;;;;5099639;28;19908;-72
2021/12/12 12:22:38;;;;;;;;;;;15.40;64.20;;;;;;5082111;28;19907;-70
2021/12/12 12:25:19;;;;;;;;;;;15.40;64.20;;;;;;5099987;28;20226;-70
2021/12/12 12:27:51;;;;;;;;;;;15.40;64.10;;;;;;5099961;28;19900;-70
2021/12/12 12:30:35;;;;;;;;;;;15.40;64.00;;;;;;5099858;28;19963;-72
2021/12/12 12:33:13;;;;;;;;;;;15.40;64.00;;;;;;5099873;28;19935;-71
2021/12/12 12:35:57;;;;;;;;;;;15.40;63.80;;;;;;5099841;28;20004;-70
2021/12/12 12:38:32;;;;;;;;;;;15.40;63.40;;;;;;5081579;28;20371;-70
2021/12/12 12:41:09;;;;;;;;;;;15.40;63.60;;;;;;5099731;28;20395;-69
2021/12/12 12:43:53;;;;;;;;;;;15.40;63.70;;;;;;5099747;28;19938;-71
2021/12/12 12:46:37;;;;;;;;;;;15.40;64.00;;;;;;5099841;28;20203;-71
2021/12/12 12:49:21;;;;;;;;;;;15.40;64.10;;;;;;5099720;28;19908;-69
2021/12/12 12:51:46;;;;;;;;;;;15.40;64.00;;;;;;5099648;28;19906;-71
2021/12/12 12:54:29;;;;;;;;;;;15.40;64.00;;;;;;5081576;28;20104;-70
2021/12/12 12:57:02;;;;;;;;;;;15.40;63.80;;;;;;5081339;28;19919;-71
2021/12/12 12:59:46;;;;;;;;;;;15.40;63.80;;;;;;5099657;28;19908;-70
2021/12/12 13:02:17;;;;;;;;;;;15.40;63.60;;;;;;5099564;28;19910;-71
2021/12/12 13:05:00;;;;;;;;;;;15.40;63.60;;;;;;5099616;28;19908;-70
2021/12/12 13:07:44;;;;;;;;;;;15.50;64.00;;;;;;5102123;28;19931;-71
2021/12/12 13:10:13;;;;;;;;;;;15.40;64.00;;;;;;5103452;28;19900;-70
2021/12/12 13:12:41;;;;;;;;;;;15.50;64.00;;;;;;5103336;28;19908;-70
2021/12/12 13:15:07;;;;;;;;;;;15.50;64.00;;;;;;5103301;28;20310;-71
2021/12/12 13:17:41;;;;;;;;;;;15.50;63.70;;;;;;5103137;28;19918;-71
2021/12/12 13:20:11;;;;;;;;;;;15.50;63.40;;;;;;5103242;28;19911;-71
2021/12/12 13:22:56;;;;;;;;;;;15.50;63.90;;;;;;5103190;28;19908;-72
2021/12/12 13:25:29;;;;;;;;;;;15.50;63.70;;;;;;5103116;28;19950;-71
2021/12/12 13:30:40;;;;;;;;;;;15.50;63.60;;;;;;5103202;28;19908;-71
2021/12/12 13:33:09;;;;;;;;;;;15.50;63.70;;;;;;5102932;28;19947;-70
2021/12/12 13:35:39;;;;;;;;;;;15.50;63.90;;;;;;5102879;28;19900;-72
2021/12/12 13:38:10;;;;;;;;;;;15.50;64.00;;;;;;5102973;28;19967;-70
2021/12/12 13:40:50;;;;;;;;;;;15.60;63.80;;;;;;5102758;28;19908;-70
2021/12/12 13:43:33;;;;;;;;;;;15.60;63.90;;;;;;5102774;28;19915;-71
2021/12/12 13:46:18;;;;;;;;;;;15.60;63.60;;;;;;5102670;28;19904;-70
2021/12/12 13:48:53;;;;;;;;;;;15.50;62.90;;;;;;5084497;28;19908;-71
2021/12/12 13:51:24;;;;;;;;;;;15.60;63.50;;;;;;5102664;28;19915;-69
2021/12/12 13:53:52;;;;;;;;;;;15.50;63.60;;;;;;5102577;28;19939;-70
2021/12/12 13:56:18;;;;;;;;;;;15.60;63.90;;;;;;5084036;28;20019;-70
2021/12/12 13:58:56;;;;;;;;;;;15.60;64.00;;;;;;5102498;28;19900;-71
2021/12/12 14:01:25;;;;;;;;;;;15.60;63.90;;;;;;5102460;28;19904;-71
2021/12/12 14:03:53;;;;;;;;;;;15.60;63.70;;;;;;5084275;28;19908;-71
2021/12/12 14:06:21;;;;;;;;;;;15.60;63.60;;;;;;5102365;28;19953;-70
2021/12/12 14:08:52;;;;;;;;;;;15.60;63.70;;;;;;5102283;28;19908;-71
2021/12/12 14:11:29;;;;;;;;;;;15.60;63.30;;;;;;5102279;28;19908;-71
2021/12/12 14:13:59;;;;;;;;;;;15.60;63.40;;;;;;5102150;28;19900;-71
2021/12/12 14:16:27;;;;;;;;;;;15.60;63.80;;;;;;5101981;28;19911;-71
2021/12/12 14:19:00;;;;;;;;;;;15.60;63.90;;;;;;5101271;28;19957;-71
2021/12/12 14:21:25;;;;;;;;;;;15.60;63.70;;;;;;5102007;28;20003;-71
2021/12/12 14:23:51;;;;;;;;;;;15.60;63.80;;;;;;5083895;28;19908;-70
2021/12/12 14:26:26;;;;;;;;;;;15.60;64.00;;;;;;5101866;28;20305;-71
2021/12/12 14:28:53;;;;;;;;;;;15.60;64.00;;;;;;5101904;28;19904;-71
2021/12/12 14:31:23;;;;;;;;;;;15.50;62.90;;;;;;5101867;28;20119;-70
2021/12/12 14:33:52;;;;;;;;;;;15.50;63.90;;;;;;5101739;28;19900;-70
2021/12/12 14:36:20;;;;;;;;;;;15.50;63.70;;;;;;5101694;28;19915;-72
2021/12/12 14:38:47;;;;;;;;;;;15.50;64.00;;;;;;5101655;28;20247;-71
2021/12/12 14:41:12;;;;;;;;;;;15.50;64.20;;;;;;5101646;28;19983;-72
2021/12/12 14:43:45;;;;;;;;;;;15.50;63.90;;;;;;5101540;28;19908;-70
2021/12/12 14:46:13;;;;;;;;;;;15.50;63.30;;;;;;5101563;28;19908;-71
2021/12/12 14:48:46;;;;;;;;;;;15.50;63.00;;;;;;5083313;28;19916;-71
2021/12/12 14:51:18;;;;;;;;;;;15.50;63.80;;;;;;5101492;28;19927;-71
2021/12/12 14:53:46;;;;;;;;;;;15.50;63.30;;;;;;5101426;28;20003;-71
2021/12/12 14:56:13;;;;;;;;;;;15.50;63.10;;;;;;5101133;28;20073;-71
2021/12/12 14:58:45;;;;;;;;;;;15.50;63.90;;;;;;5101268;28;19904;-71
2021/12/12 15:01:16;;;;;;;;;;;15.50;63.70;;;;;;5101405;28;19973;-71